YAYE

Details ICAO YAYE (AYQ)
Name Ayers Rock
Region Australia
Timezone Australia/Darwin (UTC+9.5)
Plans Departing 79
Arriving 85
Stats Elevation 1,625 ft / 495 m (AMSL)
Location -25.185555° 130.976642°
Runways 1
Magnetic Variation 3.905° E
Sunrise 2018-05-21 21:50:15 UTC / 2018-05-22 07:20:15 Local
Sunset 2018-05-22 08:38:04 UTC / 2018-05-22 18:08:04 Local
Advertisement - Login to hide

Runways

ID Width Length Bearing (true) Bearing (mag) Surface Threshold Offset Overrun Length
13 98 ft / 30 m 8,526 ft / 2,599 m 129.70° 125.79° Asphalt 0 ft / 0 m 0 ft / 0 m
31 98 ft / 30 m 8,526 ft / 2,599 m 309.70° 305.79° Asphalt 0 ft / 0 m 0 ft / 0 m

Map

Weather


0- 5 10 15 20 25 30 35+ Temperature / ° C

Clouds and Precipitation
Forecast for 2018-05-22 12:00 UTC. Updated 3 hours ago

Ground ~20,000 ft ~40,000 ft Winds

METAR

YAYE 221400Z AUTO 12006KT 9999 // NCD 15/01 Q1026

TAF

Not found

Frequencies

Recorded 126.55 MHz YAYE ATIS
Unicom 126.90 MHz AYERS ROCK MULT
Unicom 120.60 MHz ACTIVATE LIGHTS ONLY MULT
Unicom 121.85 MHz MELBOURNE CENTRE MULT
Warning: Do not use this data for real-world aviation or navigation. No guarantee of current accuracy is given.